createdAt,value
2023-04-20T00:02:22.035Z,9.94
2023-04-20T00:04:49.121Z,9.99
2023-04-20T00:07:16.796Z,10.10
2023-04-20T00:09:43.900Z,10.07
2023-04-20T00:12:10.988Z,10.02
2023-04-20T00:14:38.009Z,10.26
2023-04-20T00:17:05.587Z,9.99
2023-04-20T00:19:33.407Z,9.97
2023-04-20T00:22:01.040Z,9.98
2023-04-20T00:24:28.061Z,10.07
2023-04-20T00:26:55.401Z,9.98
2023-04-20T00:29:22.538Z,9.99
2023-04-20T00:31:49.740Z,10.01
2023-04-20T00:34:16.780Z,10.13
2023-04-20T00:36:44.426Z,10.06
2023-04-20T00:39:11.448Z,10.01
2023-04-20T00:41:38.616Z,10.10
2023-04-20T00:44:14.026Z,9.99
2023-04-20T00:46:41.969Z,9.96
2023-04-20T00:49:09.623Z,10.05
2023-04-20T00:51:36.943Z,10.00
2023-04-20T00:54:04.802Z,10.00
2023-04-20T00:56:32.062Z,10.25
2023-04-20T00:58:59.190Z,10.09
2023-04-20T01:01:26.312Z,10.03
2023-04-20T01:03:54.376Z,9.98
2023-04-20T01:06:21.525Z,10.06
2023-04-20T01:08:52.149Z,10.02
2023-04-20T01:11:19.306Z,9.95
2023-04-20T01:13:46.330Z,10.10
2023-04-20T01:16:13.681Z,9.99
2023-04-20T01:18:48.434Z,10.17
2023-04-20T01:21:19.744Z,9.96
2023-04-20T01:23:47.219Z,10.01
2023-04-20T01:26:18.308Z,9.94
2023-04-20T01:28:46.232Z,9.93
2023-04-20T01:31:13.870Z,9.92
2023-04-20T01:33:41.559Z,9.90
2023-04-20T01:36:09.527Z,9.98
2023-04-20T01:38:37.250Z,10.13
2023-04-20T01:41:07.145Z,9.96
2023-04-20T01:43:36.108Z,10.30
2023-04-20T01:46:03.271Z,10.17
2023-04-20T01:48:30.312Z,10.02
2023-04-20T01:50:57.406Z,9.98
2023-04-20T01:53:25.318Z,9.81
2023-04-20T01:55:52.392Z,9.73
2023-04-20T01:58:19.384Z,9.96
2023-04-20T02:00:46.455Z,9.77
2023-04-20T02:03:13.739Z,9.70
2023-04-20T02:05:40.890Z,9.71
2023-04-20T02:08:07.912Z,9.70
2023-04-20T02:10:34.946Z,9.84
2023-04-20T02:13:01.913Z,9.97
2023-04-20T02:15:29.130Z,9.83
2023-04-20T02:17:57.431Z,9.82
2023-04-20T02:20:24.738Z,9.63
2023-04-20T02:22:51.832Z,9.76
2023-04-20T02:25:19.020Z,9.78
2023-04-20T02:27:46.047Z,9.90
2023-04-20T02:30:13.605Z,9.68
2023-04-20T02:32:40.882Z,9.74
2023-04-20T02:35:08.939Z,9.64
2023-04-20T02:37:36.172Z,9.55
2023-04-20T02:40:04.908Z,9.49
2023-04-20T02:42:32.004Z,9.37
2023-04-20T02:44:59.049Z,9.61
2023-04-20T02:47:26.056Z,9.60
2023-04-20T02:49:53.063Z,9.58
2023-04-20T02:52:20.227Z,9.57
2023-04-20T02:54:47.357Z,9.59
2023-04-20T02:57:14.425Z,9.43
2023-04-20T02:59:41.562Z,9.40
2023-04-20T03:02:08.666Z,9.51
2023-04-20T03:04:36.877Z,9.43
2023-04-20T03:07:04.932Z,9.48
2023-04-20T03:09:32.020Z,9.14
2023-04-20T03:11:59.032Z,9.17
2023-04-20T03:14:26.146Z,9.46
2023-04-20T03:16:53.341Z,9.36
2023-04-20T03:19:20.515Z,9.50
2023-04-20T03:21:47.534Z,9.38
2023-04-20T03:24:14.673Z,9.52
2023-04-20T03:26:42.079Z,9.51
2023-04-20T03:29:09.086Z,9.42
2023-04-20T03:31:36.182Z,9.20
2023-04-20T03:34:03.343Z,9.25
2023-04-20T03:36:30.370Z,9.29
2023-04-20T03:38:57.347Z,9.45
2023-04-20T03:41:24.376Z,9.34
2023-04-20T03:43:51.378Z,9.49
2023-04-20T03:46:18.668Z,9.38
2023-04-20T03:48:45.852Z,9.35
2023-04-20T03:51:12.848Z,9.42
2023-04-20T03:53:40.726Z,9.43
2023-04-20T03:56:07.971Z,9.35
2023-04-20T03:58:35.023Z,9.58
2023-04-20T04:01:07.089Z,9.40
2023-04-20T04:03:35.939Z,9.64
2023-04-20T04:06:03.878Z,9.59
2023-04-20T04:08:32.272Z,9.45
2023-04-20T04:11:00.742Z,9.54
2023-04-20T04:13:27.805Z,9.52
2023-04-20T04:15:54.842Z,9.74
2023-04-20T04:18:22.451Z,9.53
2023-04-20T04:20:49.488Z,9.53
2023-04-20T04:23:16.640Z,9.37
2023-04-20T04:25:43.662Z,9.49
2023-04-20T04:28:10.752Z,9.47
2023-04-20T04:30:37.823Z,9.64
2023-04-20T04:33:05.148Z,9.60
2023-04-20T04:35:33.450Z,9.50
2023-04-20T04:38:01.072Z,9.52
2023-04-20T04:40:28.131Z,9.71
2023-04-20T04:42:55.712Z,9.93
2023-04-20T04:45:25.400Z,9.79
2023-04-20T04:47:53.981Z,9.95
2023-04-20T04:50:22.147Z,10.08
2023-04-20T04:52:49.289Z,9.82
2023-04-20T04:55:16.736Z,9.91
2023-04-20T04:57:43.935Z,9.92
2023-04-20T05:00:12.647Z,9.94
2023-04-20T05:02:40.309Z,9.79
2023-04-20T05:05:10.030Z,10.13
2023-04-20T05:07:38.605Z,9.74
2023-04-20T05:10:07.483Z,9.89
2023-04-20T05:12:34.777Z,10.23
2023-04-20T05:15:01.894Z,10.43
2023-04-20T05:17:28.981Z,10.45
2023-04-20T05:19:55.994Z,10.87
2023-04-20T05:22:23.129Z,10.76
2023-04-20T05:24:50.215Z,10.56
2023-04-20T05:27:17.263Z,10.43
2023-04-20T05:29:44.249Z,10.42
2023-04-20T05:32:11.488Z,10.68
2023-04-20T05:34:38.475Z,10.98
2023-04-20T05:37:06.261Z,11.71
2023-04-20T05:39:33.397Z,11.68
2023-04-20T05:42:00.389Z,11.81
2023-04-20T05:44:27.384Z,11.82
2023-04-20T05:46:54.399Z,11.96
2023-04-20T05:49:21.450Z,11.96
2023-04-20T05:51:48.498Z,11.92
2023-04-20T05:54:15.712Z,11.80
2023-04-20T05:56:42.674Z,12.34
2023-04-20T05:59:10.143Z,12.81
2023-04-20T06:01:37.175Z,12.46
2023-04-20T06:04:04.358Z,13.36
2023-04-20T06:06:31.590Z,13.74
2023-04-20T06:08:59.426Z,13.75
2023-04-20T06:11:26.439Z,14.02
2023-04-20T06:13:53.438Z,14.30
2023-04-20T06:16:20.669Z,14.76
2023-04-20T06:18:47.690Z,18.02
2023-04-20T06:21:16.079Z,21.14
2023-04-20T06:23:44.499Z,22.79
2023-04-20T06:26:11.798Z,24.71
2023-04-20T06:28:38.956Z,21.88
2023-04-20T06:31:06.536Z,21.47
2023-04-20T06:33:33.625Z,21.62
2023-04-20T06:36:00.632Z,22.46
2023-04-20T06:38:27.650Z,25.38
2023-04-20T06:40:54.700Z,26.24
2023-04-20T06:43:21.681Z,27.95
2023-04-20T06:45:48.675Z,27.71
2023-04-20T06:48:30.762Z,29.22
2023-04-20T06:50:58.928Z,29.68
2023-04-20T06:53:26.280Z,31.74
2023-04-20T06:55:56.558Z,32.39
2023-04-20T06:58:23.547Z,30.07
2023-04-20T07:00:50.582Z,28.20
2023-04-20T07:03:19.172Z,27.11
2023-04-20T07:05:46.798Z,27.85
2023-04-20T07:08:15.982Z,29.38
2023-04-20T07:10:43.302Z,27.98
2023-04-20T07:13:10.299Z,27.52
2023-04-20T07:15:37.455Z,27.73
2023-04-20T07:18:04.508Z,28.14
2023-04-20T07:20:31.897Z,28.36
2023-04-20T07:22:58.956Z,26.95
2023-04-20T07:25:26.003Z,27.05
2023-04-20T07:27:53.061Z,28.09
2023-04-20T07:30:20.162Z,27.54
2023-04-20T07:32:47.183Z,27.03
2023-04-20T07:35:14.251Z,26.16
2023-04-20T07:37:41.473Z,26.56
2023-04-20T07:40:09.833Z,27.18
2023-04-20T07:42:37.480Z,26.91
2023-04-20T07:45:06.449Z,25.89
2023-04-20T07:47:37.232Z,26.42
2023-04-20T07:50:06.515Z,25.67
2023-04-20T07:52:33.864Z,25.33
2023-04-20T07:55:00.918Z,25.60
2023-04-20T07:57:29.090Z,25.90
2023-04-20T07:59:56.152Z,25.55
2023-04-20T08:02:23.313Z,25.55
2023-04-20T08:04:50.913Z,25.19
2023-04-20T08:07:18.110Z,24.78
2023-04-20T08:09:45.169Z,23.95
2023-04-20T08:12:12.284Z,25.47
2023-04-20T08:14:41.314Z,25.53
2023-04-20T08:17:08.605Z,24.32
2023-04-20T08:19:36.341Z,23.64
2023-04-20T08:22:04.571Z,23.72
2023-04-20T08:24:32.013Z,23.35
2023-04-20T08:26:59.425Z,23.18
2023-04-20T08:29:26.573Z,22.95
2023-04-20T08:31:53.748Z,22.75
2023-04-20T08:34:20.806Z,23.16
2023-04-20T08:36:48.065Z,23.80
2023-04-20T08:39:21.799Z,23.57
2023-04-20T08:41:53.963Z,23.41
2023-04-20T08:44:21.570Z,22.87
2023-04-20T08:46:50.095Z,23.08
2023-04-20T08:49:19.324Z,22.39
2023-04-20T08:51:48.023Z,22.34
2023-04-20T08:54:15.897Z,22.32
2023-04-20T08:56:46.290Z,23.17
2023-04-20T08:59:14.688Z,23.69
2023-04-20T09:01:43.158Z,21.73
2023-04-20T09:04:21.660Z,21.52
2023-04-20T09:06:51.369Z,21.39
2023-04-20T09:09:20.812Z,21.20
2023-04-20T09:11:48.740Z,21.26
2023-04-20T09:14:18.356Z,21.40
2023-04-20T09:16:53.448Z,21.17
2023-04-20T09:19:30.852Z,20.91
2023-04-20T09:22:03.916Z,21.20
2023-04-20T09:24:33.687Z,21.96
2023-04-20T09:27:02.799Z,21.80
2023-04-20T09:29:30.414Z,21.87
2023-04-20T09:31:57.639Z,21.99
2023-04-20T09:34:24.878Z,21.82
2023-04-20T09:36:55.549Z,22.23
2023-04-20T09:39:24.523Z,21.41
2023-04-20T09:41:52.714Z,20.99
2023-04-20T09:44:20.279Z,21.69
2023-04-20T09:46:47.432Z,21.46
2023-04-20T09:49:15.227Z,21.52
2023-04-20T09:51:45.435Z,21.15
2023-04-20T09:54:15.003Z,20.90
2023-04-20T09:56:42.197Z,21.17
2023-04-20T09:59:09.327Z,21.03
2023-04-20T10:01:38.210Z,21.15
2023-04-20T10:04:14.754Z,21.04
2023-04-20T10:06:55.022Z,21.49
2023-04-20T10:09:28.613Z,22.09
2023-04-20T10:12:09.956Z,21.41
2023-04-20T10:14:37.004Z,21.30
2023-04-20T10:17:09.353Z,21.24
2023-04-20T10:19:44.732Z,21.10
2023-04-20T10:22:25.140Z,21.02
2023-04-20T10:24:52.196Z,21.35
2023-04-20T10:27:23.010Z,21.75
2023-04-20T10:29:50.196Z,22.04
2023-04-20T10:32:28.795Z,22.33
2023-04-20T10:35:08.754Z,21.96
2023-04-20T10:37:46.653Z,21.17
2023-04-20T10:40:13.879Z,20.64
2023-04-20T10:42:46.968Z,20.90
2023-04-20T10:45:14.035Z,20.21
2023-04-20T10:47:41.192Z,20.06
2023-04-20T10:50:09.364Z,20.28
2023-04-20T10:52:38.697Z,20.50
2023-04-20T10:55:08.451Z,20.78
2023-04-20T10:57:36.672Z,20.83
2023-04-20T11:00:26.222Z,20.85
2023-04-20T11:02:56.630Z,20.61
2023-04-20T11:05:27.370Z,20.48
2023-04-20T11:07:59.026Z,20.49
2023-04-20T11:10:42.658Z,20.26
2023-04-20T11:13:30.899Z,20.66
2023-04-20T11:15:58.074Z,20.65
2023-04-20T11:18:25.131Z,20.92
2023-04-20T11:20:54.241Z,21.26
2023-04-20T11:23:23.422Z,20.54
2023-04-20T11:25:56.454Z,20.12
2023-04-20T11:28:23.913Z,20.43
2023-04-20T11:30:51.292Z,20.52
2023-04-20T11:33:29.965Z,20.71
2023-04-20T11:36:01.884Z,20.80
2023-04-20T11:38:34.448Z,20.83
2023-04-20T11:41:04.773Z,20.92
2023-04-20T11:43:32.580Z,20.92
2023-04-20T11:46:02.981Z,20.73
2023-04-20T11:48:33.444Z,20.25
2023-04-20T11:51:00.487Z,20.69
2023-04-20T11:53:27.462Z,20.71
2023-04-20T11:55:54.465Z,20.86
2023-04-20T11:58:21.445Z,20.81
2023-04-20T12:00:48.848Z,20.87
2023-04-20T12:03:15.981Z,21.02
2023-04-20T12:05:43.342Z,20.66
2023-04-20T12:08:10.515Z,20.58
2023-04-20T12:10:37.565Z,20.10
2023-04-20T12:13:04.671Z,19.76
2023-04-20T12:15:32.166Z,20.02
2023-04-20T12:17:59.264Z,19.79
2023-04-20T12:20:26.359Z,19.62
2023-04-20T12:22:53.444Z,19.63
2023-04-20T12:25:20.624Z,19.65
2023-04-20T12:27:49.424Z,20.18
2023-04-20T12:30:16.999Z,20.18
2023-04-20T12:32:43.977Z,19.92
2023-04-20T12:35:10.976Z,20.02
2023-04-20T12:37:38.084Z,20.44
2023-04-20T12:40:07.160Z,20.60
2023-04-20T12:42:34.203Z,20.79
2023-04-20T12:45:01.503Z,20.98
2023-04-20T12:47:28.528Z,21.15
2023-04-20T12:49:56.289Z,20.97
2023-04-20T12:52:23.378Z,20.74
2023-04-20T12:54:50.535Z,20.66
2023-04-20T12:57:17.530Z,20.39
2023-04-20T12:59:44.549Z,20.43
2023-04-20T13:02:12.152Z,20.27
2023-04-20T13:04:39.308Z,20.30
2023-04-20T13:07:07.136Z,20.32
2023-04-20T13:09:34.263Z,20.23
2023-04-20T13:12:01.368Z,20.31
2023-04-20T13:14:28.371Z,20.14
2023-04-20T13:16:55.785Z,20.04
2023-04-20T13:19:22.993Z,19.92
2023-04-20T13:21:49.970Z,20.17
2023-04-20T13:24:17.227Z,19.82
2023-04-20T13:26:44.421Z,19.85
2023-04-20T13:29:11.643Z,19.90
2023-04-20T13:31:38.892Z,19.96
2023-04-20T13:34:06.146Z,19.82
2023-04-20T13:36:33.278Z,19.68
2023-04-20T13:39:01.211Z,19.79
2023-04-20T13:41:28.173Z,19.82
2023-04-20T13:43:56.499Z,19.89
2023-04-20T13:46:23.642Z,20.13
2023-04-20T13:48:50.832Z,20.23
2023-04-20T13:51:17.824Z,20.28
2023-04-20T13:53:44.966Z,20.21
2023-04-20T13:56:11.940Z,20.34
2023-04-20T13:58:38.950Z,20.45
2023-04-20T14:01:11.008Z,20.68
2023-04-20T14:03:38.311Z,20.67
2023-04-20T14:06:05.997Z,20.80
2023-04-20T14:08:32.954Z,20.68
2023-04-20T14:11:00.013Z,20.42
2023-04-20T14:13:27.039Z,20.46
2023-04-20T14:15:54.470Z,20.53
2023-04-20T14:18:21.641Z,20.27
2023-04-20T14:20:52.298Z,20.13
2023-04-20T14:23:19.781Z,20.15
2023-04-20T14:25:46.856Z,19.85
2023-04-20T14:28:17.782Z,20.01
2023-04-20T14:30:45.987Z,20.08
2023-04-20T14:33:13.308Z,20.19
2023-04-20T14:35:40.651Z,20.05
2023-04-20T14:38:07.606Z,20.40
2023-04-20T14:40:34.679Z,20.57
2023-04-20T14:43:01.769Z,20.29
2023-04-20T14:45:29.107Z,20.21
2023-04-20T14:47:59.248Z,19.91
2023-04-20T14:50:27.648Z,19.68
2023-04-20T14:52:55.733Z,19.54
2023-04-20T14:55:25.678Z,19.64
2023-04-20T14:57:57.647Z,19.61
2023-04-20T15:00:27.813Z,19.74
2023-04-20T15:02:59.655Z,19.95
2023-04-20T15:05:28.579Z,20.01
2023-04-20T15:07:57.717Z,20.00
2023-04-20T15:10:25.096Z,20.42
2023-04-20T15:12:52.199Z,20.48
2023-04-20T15:15:19.348Z,20.37
2023-04-20T15:17:47.015Z,20.05
2023-04-20T15:20:17.121Z,19.80
2023-04-20T15:22:44.199Z,19.91
2023-04-20T15:25:11.632Z,19.96
2023-04-20T15:27:38.976Z,19.55
2023-04-20T15:30:07.573Z,19.60
2023-04-20T15:32:34.804Z,19.57
2023-04-20T15:35:02.168Z,19.57
2023-04-20T15:37:29.264Z,19.47
2023-04-20T15:39:56.284Z,19.54
2023-04-20T15:42:23.528Z,19.71
2023-04-20T15:44:50.589Z,19.70
2023-04-20T15:47:17.612Z,19.55
2023-04-20T15:49:44.669Z,19.61
2023-04-20T15:52:11.712Z,19.76
2023-04-20T15:54:39.002Z,19.58
2023-04-20T15:57:06.110Z,19.58
2023-04-20T15:59:33.289Z,19.39
2023-04-20T16:02:00.391Z,19.58
2023-04-20T16:04:27.566Z,19.65
2023-04-20T16:06:55.205Z,19.32
2023-04-20T16:09:23.750Z,19.36
2023-04-20T16:11:51.140Z,19.49
2023-04-20T16:14:18.454Z,19.37
2023-04-20T16:16:45.793Z,19.30
2023-04-20T16:19:14.582Z,19.29
2023-04-20T16:21:41.699Z,19.12
2023-04-20T16:24:08.736Z,18.88
2023-04-20T16:26:36.213Z,19.00
2023-04-20T16:29:03.621Z,19.04
2023-04-20T16:31:31.134Z,18.86
2023-04-20T16:33:58.952Z,18.72
2023-04-20T16:36:27.095Z,18.73
2023-04-20T16:38:54.093Z,18.64
2023-04-20T16:41:21.741Z,18.37
2023-04-20T16:43:48.778Z,18.34
2023-04-20T16:46:22.194Z,18.34
2023-04-20T16:48:50.870Z,18.26
2023-04-20T16:51:17.937Z,18.28
2023-04-20T16:53:45.458Z,18.11
2023-04-20T16:56:12.804Z,18.24
2023-04-20T16:58:39.775Z,18.05
2023-04-20T17:01:07.821Z,18.20
2023-04-20T17:03:35.153Z,18.08
2023-04-20T17:06:07.409Z,17.97
2023-04-20T17:08:34.760Z,17.95
2023-04-20T17:11:01.997Z,18.05
2023-04-20T17:13:28.994Z,17.84
2023-04-20T17:15:56.436Z,17.69
2023-04-20T17:18:23.538Z,17.76
2023-04-20T17:20:50.734Z,17.74
2023-04-20T17:23:18.284Z,17.64
2023-04-20T17:25:47.364Z,17.61
2023-04-20T17:28:14.762Z,17.68
2023-04-20T17:30:42.099Z,17.59
2023-04-20T17:33:12.522Z,17.55
2023-04-20T17:35:39.774Z,17.50
2023-04-20T17:38:06.852Z,17.25
2023-04-20T17:40:34.256Z,17.20
2023-04-20T17:43:02.306Z,17.22
2023-04-20T17:45:29.386Z,17.12
2023-04-20T17:47:56.550Z,17.19
2023-04-20T17:50:23.852Z,17.29
2023-04-20T17:52:51.711Z,17.13
2023-04-20T17:55:18.960Z,16.94
2023-04-20T17:57:45.987Z,17.19
2023-04-20T18:00:13.986Z,16.85
2023-04-20T18:02:41.185Z,16.97
2023-04-20T18:05:08.737Z,16.89
2023-04-20T18:07:35.844Z,16.72
2023-04-20T18:10:03.994Z,16.81
2023-04-20T18:12:30.966Z,16.62
2023-04-20T18:15:01.399Z,16.51
2023-04-20T18:17:28.568Z,16.56
2023-04-20T18:19:55.640Z,16.63
2023-04-20T18:22:24.244Z,16.61
2023-04-20T18:24:51.929Z,16.57
2023-04-20T18:27:19.089Z,16.52
2023-04-20T18:29:46.455Z,16.54
2023-04-20T18:32:16.391Z,16.48
2023-04-20T18:34:44.043Z,16.47
2023-04-20T18:37:15.002Z,16.46
2023-04-20T18:39:42.119Z,16.49
2023-04-20T18:42:09.361Z,16.34
2023-04-20T18:44:36.462Z,16.43
2023-04-20T18:47:03.505Z,16.42
2023-04-20T18:49:30.814Z,16.17
2023-04-20T18:51:57.827Z,16.04
2023-04-20T18:54:24.776Z,15.93
2023-04-20T18:56:51.884Z,16.17
2023-04-20T18:59:18.949Z,16.08
2023-04-20T19:01:46.041Z,16.21
2023-04-20T19:04:13.108Z,15.97
2023-04-20T19:06:40.317Z,15.85
2023-04-20T19:09:08.384Z,15.81
2023-04-20T19:11:35.520Z,15.58
2023-04-20T19:14:02.787Z,15.62
2023-04-20T19:16:31.567Z,15.70
2023-04-20T19:18:59.164Z,15.68
2023-04-20T19:21:27.073Z,15.65
2023-04-20T19:23:54.107Z,15.69
2023-04-20T19:26:21.436Z,15.63
2023-04-20T19:28:48.500Z,15.59
2023-04-20T19:31:16.030Z,15.65
2023-04-20T19:33:43.130Z,15.81
2023-04-20T19:36:10.270Z,15.53
2023-04-20T19:38:37.533Z,15.64
2023-04-20T19:41:06.354Z,15.44
2023-04-20T19:43:33.588Z,15.24
2023-04-20T19:46:00.875Z,15.22
2023-04-20T19:48:27.958Z,15.26
2023-04-20T19:50:59.274Z,15.35
2023-04-20T19:53:27.107Z,14.99
2023-04-20T19:55:54.288Z,15.24
2023-04-20T19:58:21.456Z,15.02
2023-04-20T20:00:48.632Z,14.92
2023-04-20T20:03:16.166Z,15.03
2023-04-20T20:05:43.882Z,14.92
2023-04-20T20:08:11.914Z,15.01
2023-04-20T20:10:39.056Z,14.92
2023-04-20T20:13:06.390Z,14.79
2023-04-20T20:15:33.461Z,14.94
2023-04-20T20:18:00.839Z,14.77
2023-04-20T20:20:30.480Z,14.85
2023-04-20T20:22:58.959Z,14.89
2023-04-20T20:25:26.546Z,14.83
2023-04-20T20:27:53.722Z,14.81
2023-04-20T20:30:20.767Z,14.67
2023-04-20T20:32:48.468Z,14.60
2023-04-20T20:35:16.514Z,14.49
2023-04-20T20:37:45.381Z,14.55
2023-04-20T20:40:16.613Z,14.53
2023-04-20T20:42:45.225Z,14.35
2023-04-20T20:45:13.905Z,14.35
2023-04-20T20:47:44.163Z,14.41
2023-04-20T20:50:16.281Z,14.15
2023-04-20T20:52:43.360Z,14.12
2023-04-20T20:55:10.722Z,14.19
2023-04-20T20:57:38.034Z,14.30
2023-04-20T21:00:09.878Z,14.01
2023-04-20T21:02:37.707Z,14.22
2023-04-20T21:05:05.921Z,13.82
2023-04-20T21:07:33.036Z,13.86
2023-04-20T21:10:00.199Z,13.73
2023-04-20T21:12:27.186Z,13.85
2023-04-20T21:14:54.393Z,13.63
2023-04-20T21:17:21.454Z,13.85
2023-04-20T21:19:48.474Z,13.60
2023-04-20T21:22:15.515Z,13.53
2023-04-20T21:24:42.504Z,13.51
2023-04-20T21:27:09.978Z,13.54
2023-04-20T21:29:37.020Z,13.49
2023-04-20T21:32:04.456Z,13.41
2023-04-20T21:34:31.723Z,13.52
2023-04-20T21:37:04.078Z,13.41
2023-04-20T21:39:32.232Z,13.39
2023-04-20T21:41:59.851Z,13.51
2023-04-20T21:44:27.332Z,13.24
2023-04-20T21:46:54.375Z,13.15
2023-04-20T21:49:21.989Z,13.20
2023-04-20T21:51:49.241Z,13.09
2023-04-20T21:54:16.294Z,13.19
2023-04-20T21:56:43.354Z,13.07
2023-04-20T21:59:10.348Z,13.03
2023-04-20T22:01:37.415Z,12.93
2023-04-20T22:04:04.794Z,12.98
2023-04-20T22:06:32.736Z,13.01
2023-04-20T22:08:59.918Z,12.78
2023-04-20T22:11:26.902Z,12.80
2023-04-20T22:13:54.058Z,12.96
2023-04-20T22:16:21.928Z,12.90
2023-04-20T22:18:49.222Z,12.83
2023-04-20T22:21:16.337Z,12.65
2023-04-20T22:23:43.307Z,12.63
2023-04-20T22:26:10.617Z,12.73
2023-04-20T22:28:37.626Z,12.49
2023-04-20T22:31:04.913Z,12.45
2023-04-20T22:33:31.916Z,12.44
2023-04-20T22:35:58.978Z,12.33
2023-04-20T22:38:26.059Z,12.58
2023-04-20T22:40:53.759Z,12.48
2023-04-20T22:43:21.635Z,12.35
2023-04-20T22:45:48.871Z,12.29
2023-04-20T22:48:15.977Z,12.06
2023-04-20T22:50:43.376Z,12.10
2023-04-20T22:53:10.395Z,12.05
2023-04-20T22:55:37.362Z,12.15
2023-04-20T22:58:04.457Z,12.03
2023-04-20T23:00:31.504Z,11.95
2023-04-20T23:02:58.611Z,11.93
2023-04-20T23:05:26.554Z,11.89
2023-04-20T23:07:54.002Z,11.84
2023-04-20T23:10:21.292Z,11.73
2023-04-20T23:12:49.641Z,11.87
2023-04-20T23:15:16.694Z,11.75
2023-04-20T23:17:43.782Z,11.87
2023-04-20T23:20:13.726Z,11.77
2023-04-20T23:22:41.037Z,11.81
2023-04-20T23:25:09.928Z,11.76
2023-04-20T23:27:37.136Z,11.67
2023-04-20T23:30:04.783Z,11.65
2023-04-20T23:32:31.910Z,11.68
2023-04-20T23:34:59.012Z,11.57
2023-04-20T23:37:26.006Z,11.67
2023-04-20T23:39:53.006Z,11.62
2023-04-20T23:42:19.959Z,11.57
2023-04-20T23:44:46.922Z,11.50
2023-04-20T23:47:15.531Z,11.65
2023-04-20T23:49:42.574Z,11.53
2023-04-20T23:52:09.582Z,11.61
2023-04-20T23:54:36.554Z,11.54
2023-04-20T23:57:03.530Z,11.40
2023-04-20T23:59:31.277Z,11.40
